»·PEaware :: SWA1346 KOAK-KLAX

SWA1346 :: KOAK-KLAX

FLIGHT INFORMATION

Flight Status: Arrived
Operator:
Southwest Airlines
More flights by this operator :: More flights under this callsign
Pilot: Brandon G. (13)
Aircraft: BOEING 737-800
(B738)
More flights by this aircraft type
Origin: KOAK Metro Oakland Intl
United States
Destination: KLAX Los Angeles Intl
United States
More flights between these airports :: More routes between these airports
Route: +CNDEL3 EBAYE BURGL IRNMN1
File this flight plan on PilotEdge
Remarks:
Altitude:
(Current/Filed)
27,000ft
Speed:
(Current/Filed)
425kts
Departed: 05-Jan-18 09:16 PM
Arrived: 05-Jan-18 10:19 PM
Distance/Time
Traveled:
293nm/1:03
Distance/Time
To Go:
Arrived

Flight Plot

Page will automatically refresh every two minutes.

Flight plan parsing failed; only flown route is shown


Map Options




Map Legend


Flown Route
Filed Route
Departure Airport
Arrival Airport
Navaid (VOR, NDB)
Fix

Horizontal Profiles

Position Reports

Time Latitude Longitude Heading Altitude Ground
Speed
05-Jan-18 20:49 37.709551 -122.212953 125 11ft 0kts
05-Jan-18 20:50 37.709551 -122.212953 125 11ft 0kts
05-Jan-18 20:51 37.709551 -122.212953 125 11ft 0kts
05-Jan-18 20:52 37.709551 -122.212953 125 11ft 0kts
05-Jan-18 20:53 37.709551 -122.212953 125 11ft 0kts
05-Jan-18 20:54 37.709551 -122.212953 125 11ft 0kts
05-Jan-18 20:55 37.709551 -122.212953 125 11ft 0kts
05-Jan-18 20:56 37.709551 -122.212953 125 11ft 0kts
05-Jan-18 20:57 37.709551 -122.212953 125 11ft 0kts
05-Jan-18 20:58 37.709551 -122.212953 125 11ft 0kts
05-Jan-18 20:59 37.709551 -122.212953 125 11ft 0kts
05-Jan-18 21:00 37.709551 -122.212953 125 11ft 0kts
05-Jan-18 21:01 37.709551 -122.212953 125 11ft 0kts
05-Jan-18 21:02 37.709551 -122.212953 125 11ft 0kts
05-Jan-18 21:03 37.709551 -122.212953 125 11ft 0kts
05-Jan-18 21:04 37.709551 -122.212953 125 11ft 0kts
05-Jan-18 21:05 37.709551 -122.212953 125 11ft 0kts
05-Jan-18 21:06 37.709551 -122.212953 125 11ft 0kts
05-Jan-18 21:07 37.709551 -122.212953 125 11ft 0kts
05-Jan-18 21:08 37.709551 -122.212953 125 11ft 0kts
05-Jan-18 21:09 37.709551 -122.212953 125 11ft 0kts
05-Jan-18 21:10 37.709551 -122.212953 125 11ft 0kts
05-Jan-18 21:11 37.709551 -122.212953 125 11ft 0kts
05-Jan-18 21:12 37.709551 -122.212953 125 11ft 0kts
05-Jan-18 21:13 37.709747 -122.213143 171 11ft 2kts
05-Jan-18 21:14 37.709953 -122.213092 203 11ft 0kts
05-Jan-18 21:15 37.709953 -122.213093 203 11ft 0kts
05-Jan-18 21:16 37.709953 -122.213093 203 11ft 0kts
05-Jan-18 21:17 37.709953 -122.213093 203 11ft 0kts
05-Jan-18 21:18 37.709533 -122.213680 235 11ft 13kts
05-Jan-18 21:19 37.708324 -122.216350 223 11ft 8kts
05-Jan-18 21:20 37.705640 -122.216675 128 11ft 14kts
05-Jan-18 21:21 37.702174 -122.213737 212 11ft 16kts
05-Jan-18 21:22 37.705766 -122.220677 309 11ft 106kts
05-Jan-18 21:23 37.731633 -122.260878 311 1420ft 255kts
05-Jan-18 21:24 37.778460 -122.339454 277 3974ft 236kts
05-Jan-18 21:25 37.735720 -122.389589 198 7621ft 265kts
05-Jan-18 21:26 37.680199 -122.408835 198 9968ft 267kts
05-Jan-18 21:27 37.594285 -122.438588 198 13490ft 305kts
05-Jan-18 21:28 37.535728 -122.458761 199 16195ft 312kts
05-Jan-18 21:29 37.454366 -122.427268 142 19223ft 359kts
05-Jan-18 21:30 37.377197 -122.324154 141 19771ft 370kts
05-Jan-18 21:31 37.320849 -122.249252 142 22223ft 383kts
05-Jan-18 21:32 37.251455 -122.157155 142 24767ft 402kts
05-Jan-18 21:33 37.179116 -122.061024 143 27170ft 413kts
05-Jan-18 21:34 37.100464 -121.956575 142 27262ft 446kts
05-Jan-18 21:35 37.017517 -121.846024 141 27250ft 459kts
05-Jan-18 21:36 36.933455 -121.733930 141 27252ft 454kts
05-Jan-18 21:37 36.850335 -121.623020 141 27267ft 454kts
05-Jan-18 21:38 36.766264 -121.510685 141 27274ft 454kts
05-Jan-18 21:39 36.681620 -121.397451 141 27272ft 454kts
05-Jan-18 21:40 36.602466 -121.291434 141 27263ft 453kts
05-Jan-18 21:41 36.519893 -121.180664 141 27260ft 454kts
05-Jan-18 21:42 36.436805 -121.069161 140 27260ft 458kts
05-Jan-18 21:43 36.353160 -120.950148 138 27253ft 463kts
05-Jan-18 21:44 36.269384 -120.831138 138 27246ft 463kts
05-Jan-18 21:45 36.186561 -120.713454 138 27247ft 463kts
05-Jan-18 21:46 36.114279 -120.610648 138 27247ft 462kts
05-Jan-18 21:47 36.038336 -120.502548 138 27247ft 463kts
05-Jan-18 21:48 35.955011 -120.383722 137 27241ft 463kts
05-Jan-18 21:49 35.884420 -120.282927 138 27240ft 462kts
05-Jan-18 21:50 35.784226 -120.196059 156 27245ft 444kts
05-Jan-18 21:51 35.679476 -120.117787 156 27246ft 444kts
05-Jan-18 21:52 35.575645 -120.039652 156 27247ft 444kts
05-Jan-18 21:53 35.472363 -119.962064 156 27246ft 443kts
05-Jan-18 21:54 35.368274 -119.883894 156 27240ft 444kts
05-Jan-18 21:55 35.266060 -119.803937 149 27239ft 450kts
05-Jan-18 21:56 35.176010 -119.719159 150 27259ft 450kts
05-Jan-18 21:57 35.090737 -119.639690 150 27244ft 450kts
05-Jan-18 21:58 35.008611 -119.563236 149 27232ft 452kts
05-Jan-18 21:59 34.922535 -119.483074 149 27235ft 453kts
05-Jan-18 22:00 34.827277 -119.397437 150 27235ft 443kts
05-Jan-18 22:01 34.741668 -119.320965 152 26256ft 409kts
05-Jan-18 22:02 34.652441 -119.243122 151 24251ft 396kts
05-Jan-18 22:03 34.564819 -119.167578 151 22274ft 384kts
05-Jan-18 22:04 34.480569 -119.093076 150 20353ft 374kts
05-Jan-18 22:05 34.400776 -119.023159 150 18538ft 364kts
05-Jan-18 22:06 34.321453 -118.953833 148 16494ft 352kts
05-Jan-18 22:07 34.245612 -118.884854 146 14789ft 347kts
05-Jan-18 22:08 34.169520 -118.814840 146 13057ft 317kts
05-Jan-18 22:09 34.107748 -118.748665 140 11982ft 291kts
05-Jan-18 22:10 34.049025 -118.684734 140 10443ft 288kts
05-Jan-18 22:11 34.023950 -118.599583 97 9192ft 285kts
05-Jan-18 22:12 34.015369 -118.511617 96 8012ft 278kts
05-Jan-18 22:13 34.014163 -118.430038 78 6950ft 262kts
05-Jan-18 22:14 34.027259 -118.356910 78 6004ft 242kts
05-Jan-18 22:15 34.034066 -118.292542 79 5986ft 235kts
05-Jan-18 22:16 34.041483 -118.222647 82 5076ft 230kts
05-Jan-18 22:17 34.047295 -118.152649 90 3855ft 221kts
05-Jan-18 22:18 34.008808 -118.114829 180 2578ft 195kts
05-Jan-18 22:19 33.978740 -118.146822 261 2601ft 164kts
05-Jan-18 22:20 33.973447 -118.194850 263 2588ft 164kts
05-Jan-18 22:21 33.968644 -118.241812 263 2589ft 163kts
05-Jan-18 22:22 33.963816 -118.289200 263 1975ft 161kts
05-Jan-18 22:23 33.959172 -118.334240 263 1228ft 138kts
05-Jan-18 22:24 33.954646 -118.377895 262 550ft 139kts
05-Jan-18 22:25 33.950532 -118.416717 253 119ft 29kts
05-Jan-18 22:26 33.947158 -118.422267 166 116ft 10kts
05-Jan-18 22:27 33.947299 -118.418039 86 119ft 15kts
05-Jan-18 22:28 33.948168 -118.410599 82 122ft 28kts
05-Jan-18 22:29 33.948409 -118.402753 120 118ft 10kts
05-Jan-18 22:30 33.947890 -118.401101 182 116ft 0kts
05-Jan-18 22:31 33.947890 -118.401101 182 116ft 0kts
05-Jan-18 22:32 33.947890 -118.401101 182 116ft 0kts
05-Jan-18 22:33 33.947890 -118.401101 182 116ft 0kts
05-Jan-18 22:34 33.947890 -118.401101 182 116ft 0kts

Navigation Log

Ident Type
Flight plan parsing failed, navigation log unavailable